Pagina principală
METAR-TAF:

METAR-TAF

Aeroporturi :

Vanua Lava, Vanuatu

Latitudine: 13-51-06S, longitudine: 167-32-13E, elevație: 2 m

Observații meteo curente

Raportul a fost făcut în urmă cu 48 de minute, la 15:00 UTC
Vânt calm
Temperatură 25°C
Umiditate 94%
Presiune 1011 hPa
Vizibilitate de 10 km sau mai mult
Nori puțini la o înălțime de 2000 picior

METAR: NVSC 081500Z 00000KT 9999 FEW020 25/24 Q1011

Ora: 02:48 (15:48 UTC)

Prognoză

Raportul a fost făcut în urmă cu 5 ore și 48 de minute, la 10:00 UTC
Prognoză valabilă de la 08 ora 12 UTC la 09 ora 12 UTC
Vânt 1 kt din direcții variabile
Vizibilitate de 10 km sau mai mult
Nori împrăștiați la o înălțime de 2000 picior

TAF: NVSC 081000Z 0812/0912 VRB01KT 9999 SCT020

Observații și prognoze meteo pentru peste 4.000 de aeroporturi (rapoarte METAR și TAF).

Stațiile disponibile sunt reprezentate pe hartă prin puncte galbene și roșii.

Țineți indicatorul mouse-ului pe punctul dorit pentru a vedea denumirea stației.

Apoi, faceți clic pentru a vedea observațiile și prognozele meteorologice.

Pentru a schimba harta: Pentru mărire, faceți clic pe butoanele verzi cu cruce neagră; pentru micșorare, pe butonul verde cu o liniuță; pentru hărți învecinate, pe săgețile verzi.


METAR-TAF: